Terminal Aerodrome Forecast
Issued by NWS North Platte, NE

Home | Current Version | Previous Version | Text Only | Print | Product List | Glossary On
Versions: 1 2 3 4 5 6 7 8 9 10 11 12 13 14 15 16 17 18 19 20 21 22 23 24 25 26 27 28 29 30 31 32 33 34 35 36 37 38 39
000
FTUS43 KLBF 200500
TAFLBF
TAF
KLBF 200520Z 2006/2106 VRB05KT P6SM BKN120
      TEMPO 2006/2007 VRB25G35KT 5SM TSRA BKN050CB
     FM200800 34012KT P6SM SCT060 BKN120
     FM201200 02012KT P6SM SCT120
     FM202200 36012G18KT P6SM SKC=

USA.gov is the U.S. government's official web portal to all federal, state and local government web resources and services.